Time;durP1;ratioP1;P1;durP2;ratioP2;P2;SDS_P1;SDS_P2;PMS_P1;PMS_P2;Temp;Humidity;BMP_temperature;BMP_pressure;BME280_temperature;BME280_humidity;BME280_pressure;Samples;Min_cycle;Max_cycle;Signal;HPM_P1;HPM_P2
2021/08/05 00:00:47;;;;;;;14.18;12.88;;;17.40;99.90;;;;;;5052952;28;20639;-64
2021/08/05 00:03:16;;;;;;;12.70;11.65;;;17.30;99.90;;;;;;5052971;28;20201;-65
2021/08/05 00:05:44;;;;;;;12.68;11.57;;;17.30;99.90;;;;;;5052680;28;20307;-64
2021/08/05 00:08:12;;;;;;;13.35;12.13;;;17.30;99.90;;;;;;5052580;28;20202;-64
2021/08/05 00:10:40;;;;;;;12.98;11.88;;;17.30;99.90;;;;;;5052372;28;20653;-64
2021/08/05 00:13:07;;;;;;;12.95;11.75;;;17.30;99.90;;;;;;5052443;28;20239;-64
2021/08/05 00:15:35;;;;;;;13.02;12.02;;;17.30;99.90;;;;;;5052727;28;20201;-64
2021/08/05 00:18:03;;;;;;;12.88;11.88;;;17.30;99.90;;;;;;5068072;28;20250;-63
2021/08/05 00:20:32;;;;;;;11.80;10.90;;;17.30;99.90;;;;;;5072684;28;20204;-64
2021/08/05 00:23:00;;;;;;;11.93;10.98;;;17.30;99.90;;;;;;5072289;28;20676;-64
2021/08/05 00:25:28;;;;;;;13.90;12.80;;;17.30;99.90;;;;;;5072670;28;20197;-64
2021/08/05 00:27:56;;;;;;;12.82;11.63;;;17.30;99.90;;;;;;5072187;28;20683;-64
2021/08/05 00:30:24;;;;;;;12.38;11.35;;;17.30;99.90;;;;;;5072598;28;20197;-64
2021/08/05 00:32:52;;;;;;;12.80;11.80;;;17.30;99.90;;;;;;5072524;28;20201;-65
2021/08/05 00:35:20;;;;;;;12.32;11.23;;;17.30;99.90;;;;;;5072442;28;20224;-65
2021/08/05 00:37:49;;;;;;;13.82;12.52;;;17.30;99.90;;;;;;5072070;28;20236;-65
2021/08/05 00:40:17;;;;;;;14.13;12.82;;;17.30;99.90;;;;;;5072250;28;20200;-64
2021/08/05 00:42:49;;;;;;;13.25;12.15;;;17.30;99.90;;;;;;5075925;28;20657;-65
2021/08/05 00:45:17;;;;;;;12.48;11.48;;;17.20;99.90;;;;;;5076420;28;20254;-66
2021/08/05 00:47:45;;;;;;;14.95;13.75;;;17.20;99.90;;;;;;5076350;28;20203;-66
2021/08/05 00:50:13;;;;;;;14.55;13.30;;;17.10;99.90;;;;;;5076170;28;20691;-64
2021/08/05 00:52:41;;;;;;;14.68;13.40;;;17.20;99.90;;;;;;5076425;28;20295;-65
2021/08/05 00:55:11;;;;;;;13.65;12.45;;;17.10;99.90;;;;;;5076142;28;20257;-65
2021/08/05 00:57:39;;;;;;;14.90;13.70;;;17.20;99.90;;;;;;5075829;28;20250;-64
2021/08/05 01:00:10;;;;;;;14.43;13.23;;;17.10;99.90;;;;;;5076162;28;20289;-64
2021/08/05 01:02:43;;;;;;;13.57;12.48;;;17.20;99.90;;;;;;5076261;28;20185;-65
2021/08/05 01:05:11;;;;;;;18.10;16.50;;;17.10;99.90;;;;;;5076212;28;20189;-64
2021/08/05 01:07:45;;;;;;;17.05;15.45;;;17.10;99.90;;;;;;5075866;28;20200;-66
2021/08/05 01:10:19;;;;;;;16.48;15.07;;;17.10;99.90;;;;;;5075923;28;20241;-64
2021/08/05 01:12:53;;;;;;;16.45;15.15;;;17.10;99.90;;;;;;5076093;28;20181;-64
2021/08/05 01:15:24;;;;;;;16.98;15.57;;;17.20;99.90;;;;;;5075870;28;20240;-64
2021/08/05 01:17:57;;;;;;;14.38;13.18;;;17.10;99.90;;;;;;5075863;28;20276;-65
2021/08/05 01:20:27;;;;;;;17.20;15.80;;;17.00;99.90;;;;;;5075707;28;20216;-65
2021/08/05 01:23:08;;;;;;;16.70;15.30;;;17.00;99.90;;;;;;5075780;28;20181;-65
2021/08/05 01:25:48;;;;;;;17.67;16.17;;;17.00;99.90;;;;;;5075712;28;20282;-65
2021/08/05 01:28:17;;;;;;;17.38;15.77;;;17.00;99.90;;;;;;5075315;28;20547;-63
2021/08/05 01:30:48;;;;;;;17.08;15.68;;;17.10;99.90;;;;;;5075645;28;20224;-64
2021/08/05 01:33:19;;;;;;;16.92;15.52;;;17.00;99.90;;;;;;5075568;28;20538;-63
2021/08/05 01:35:50;;;;;;;17.83;16.27;;;17.00;99.90;;;;;;5075413;28;20205;-64
2021/08/05 01:38:18;;;;;;;18.35;16.83;;;17.00;99.90;;;;;;5075368;28;20193;-63
2021/08/05 01:40:49;;;;;;;17.85;16.35;;;17.00;99.90;;;;;;5070675;28;20296;-64
2021/08/05 01:43:19;;;;;;;16.55;15.15;;;17.00;99.90;;;;;;5055073;28;20550;-66
2021/08/05 01:45:48;;;;;;;16.88;15.50;;;17.00;99.90;;;;;;5054877;28;20235;-64
2021/08/05 01:48:18;;;;;;;16.98;15.60;;;17.00;99.90;;;;;;5055331;28;20572;-65
2021/08/05 01:50:47;;;;;;;17.30;15.88;;;17.00;99.90;;;;;;5055236;28;20201;-64
2021/08/05 01:53:16;;;;;;;17.55;15.95;;;17.00;99.90;;;;;;5053587;28;20193;-63
2021/08/05 01:55:46;;;;;;;18.77;17.10;;;16.90;99.90;;;;;;5055052;28;20217;-63
2021/08/05 01:58:14;;;;;;;19.00;17.15;;;16.90;99.90;;;;;;5054952;28;20396;-64
2021/08/05 02:00:43;;;;;;;20.92;19.02;;;16.90;99.90;;;;;;5055006;28;20280;-63
2021/08/05 02:03:13;;;;;;;20.10;18.30;;;16.90;99.90;;;;;;5055278;28;20201;-64
2021/08/05 02:05:49;;;;;;;20.88;18.88;;;16.90;99.90;;;;;;5054859;28;20194;-65
2021/08/05 02:08:21;;;;;;;21.30;19.30;;;16.90;99.90;;;;;;5054751;28;20732;-64
2021/08/05 02:10:51;;;;;;;20.45;18.45;;;16.90;99.90;;;;;;5054843;28;20205;-64
2021/08/05 02:13:24;;;;;;;18.45;16.85;;;16.90;99.90;;;;;;5055072;28;20208;-64
2021/08/05 02:15:55;;;;;;;19.73;17.85;;;16.90;99.90;;;;;;5054391;28;20741;-64
2021/08/05 02:18:28;;;;;;;19.52;17.70;;;16.80;99.90;;;;;;5073034;28;20664;-64
2021/08/05 02:20:56;;;;;;;18.02;16.40;;;16.80;99.90;;;;;;5074710;28;20181;-64
2021/08/05 02:23:26;;;;;;;18.10;16.50;;;16.80;99.90;;;;;;5074368;28;20210;-65
2021/08/05 02:25:55;;;;;;;18.60;16.90;;;16.80;99.90;;;;;;5074579;28;20243;-64
2021/08/05 02:28:24;;;;;;;18.55;16.95;;;16.80;99.90;;;;;;5074126;28;20771;-64
2021/08/05 02:30:55;;;;;;;19.13;17.42;;;16.80;99.90;;;;;;5074513;28;20291;-66
2021/08/05 02:33:26;;;;;;;20.85;18.85;;;16.80;99.90;;;;;;5074516;28;20197;-65
2021/08/05 02:35:54;;;;;;;20.27;18.38;;;16.80;99.90;;;;;;5074125;28;20676;-65
2021/08/05 02:38:22;;;;;;;19.85;18.05;;;16.80;99.90;;;;;;5074199;28;20200;-64
2021/08/05 02:40:51;;;;;;;22.05;20.13;;;16.80;99.90;;;;;;5074263;28;20291;-64
2021/08/05 02:43:19;;;;;;;22.02;19.92;;;16.80;99.90;;;;;;5074340;28;20307;-64
2021/08/05 02:45:49;;;;;;;23.75;21.65;;;16.80;99.90;;;;;;5073637;28;20325;-64
2021/08/05 02:48:19;;;;;;;22.77;20.73;;;16.80;99.90;;;;;;5074149;28;20656;-63
2021/08/05 02:50:48;;;;;;;24.85;22.35;;;16.80;99.90;;;;;;5074091;28;20193;-63
2021/08/05 02:53:16;;;;;;;25.60;23.20;;;16.90;99.90;;;;;;5073890;28;20534;-64
2021/08/05 02:55:45;;;;;;;24.92;22.45;;;16.90;99.90;;;;;;5073912;28;20243;-64
2021/08/05 02:58:13;;;;;;;26.38;23.45;;;16.90;99.90;;;;;;5073436;28;20629;-63
2021/08/05 03:00:42;;;;;;;25.50;23.05;;;16.90;99.90;;;;;;5073725;28;20262;-63
2021/08/05 03:03:11;;;;;;;25.98;23.48;;;17.00;99.90;;;;;;5073683;28;20645;-65
2021/08/05 03:05:42;;;;;;;25.98;23.42;;;17.10;99.90;;;;;;5073135;28;20913;-64
2021/08/05 03:08:09;;;;;;;25.15;22.88;;;17.10;99.90;;;;;;5073933;28;20203;-65
2021/08/05 03:10:37;;;;;;;24.33;21.98;;;17.10;99.90;;;;;;5073875;28;20291;-64
2021/08/05 03:13:05;;;;;;;24.77;22.17;;;17.10;99.90;;;;;;5073309;28;20568;-63
2021/08/05 03:15:33;;;;;;;25.02;22.63;;;17.10;99.90;;;;;;5073574;28;20220;-64
2021/08/05 03:18:01;;;;;;;23.85;21.55;;;17.00;99.90;;;;;;5073656;28;20563;-64
2021/08/05 03:20:29;;;;;;;24.33;22.02;;;17.00;99.90;;;;;;5073621;28;20205;-64
2021/08/05 03:22:59;;;;;;;24.25;22.05;;;17.00;99.90;;;;;;5073019;28;20657;-65
2021/08/05 03:25:28;;;;;;;24.42;22.13;;;16.90;99.90;;;;;;5073308;28;20284;-64
2021/08/05 03:27:55;;;;;;;25.33;23.02;;;16.90;99.90;;;;;;5073375;28;20296;-64
2021/08/05 03:30:23;;;;;;;25.60;23.20;;;16.80;99.90;;;;;;5073166;28;20292;-64
2021/08/05 03:32:51;;;;;;;23.48;21.35;;;16.80;99.90;;;;;;5073015;28;20668;-64
2021/08/05 03:35:19;;;;;;;22.80;20.70;;;16.80;99.90;;;;;;5073294;28;20246;-64
2021/08/05 03:37:47;;;;;;;22.75;20.67;;;16.70;99.90;;;;;;5073184;28;20232;-64
2021/08/05 03:40:16;;;;;;;22.98;20.77;;;16.70;99.90;;;;;;5073157;28;20291;-64
2021/08/05 03:42:44;;;;;;;21.52;19.52;;;16.80;99.90;;;;;;5057089;28;20296;-63
2021/08/05 03:45:12;;;;;;;23.00;20.98;;;16.80;99.90;;;;;;5056307;28;20325;-63
2021/08/05 03:47:40;;;;;;;22.88;20.67;;;16.80;99.90;;;;;;5054521;28;20292;-64
2021/08/05 03:50:10;;;;;;;20.05;18.25;;;16.80;99.90;;;;;;5052864;28;20205;-65
2021/08/05 03:52:41;;;;;;;22.65;20.55;;;16.80;99.90;;;;;;5052859;28;20189;-64
2021/08/05 03:55:13;;;;;;;22.67;20.58;;;16.80;99.90;;;;;;5052733;28;20198;-64
2021/08/05 03:57:43;;;;;;;20.30;18.48;;;16.90;99.90;;;;;;5052483;28;20299;-64
2021/08/05 04:00:13;;;;;;;20.77;18.98;;;16.90;99.90;;;;;;5052445;28;20190;-64
2021/08/05 04:02:42;;;;;;;21.45;19.50;;;16.90;99.90;;;;;;5053128;28;20197;-64
2021/08/05 04:05:11;;;;;;;19.95;18.25;;;16.90;99.90;;;;;;5052823;28;20586;-64
2021/08/05 04:07:40;;;;;;;20.08;18.27;;;16.90;99.90;;;;;;5052781;28;20645;-64
2021/08/05 04:10:09;;;;;;;19.00;17.35;;;17.00;99.90;;;;;;5052597;28;20201;-64
2021/08/05 04:12:37;;;;;;;19.75;18.05;;;17.00;99.90;;;;;;5052561;28;20206;-63
2021/08/05 04:15:08;;;;;;;17.67;15.98;;;17.00;99.90;;;;;;5052559;28;20205;-63
2021/08/05 04:17:36;;;;;;;18.23;16.63;;;17.00;99.90;;;;;;5063871;28;20215;-64
2021/08/05 04:20:04;;;;;;;18.08;16.42;;;17.10;99.90;;;;;;5072908;28;20206;-64
2021/08/05 04:22:32;;;;;;;16.75;15.25;;;17.00;99.90;;;;;;5072609;28;20544;-64
2021/08/05 04:25:00;;;;;;;18.25;16.48;;;17.10;99.90;;;;;;5072413;28;20280;-64
2021/08/05 04:27:28;;;;;;;15.63;14.25;;;17.10;99.90;;;;;;5072471;28;20189;-63
2021/08/05 04:30:13;;;;;;;17.13;15.63;;;17.20;99.90;;;;;;5072473;28;20272;-64
2021/08/05 04:32:41;;;;;;;17.55;15.88;;;17.10;99.90;;;;;;5072668;28;20189;-64
2021/08/05 04:35:11;;;;;;;16.90;15.40;;;17.20;99.90;;;;;;5072346;28;20702;-64
2021/08/05 04:37:48;;;;;;;17.13;15.73;;;17.20;99.90;;;;;;5072490;28;20217;-65
2021/08/05 04:40:17;;;;;;;17.40;15.90;;;17.20;99.90;;;;;;5072251;28;20588;-64
2021/08/05 04:42:45;;;;;;;17.73;16.23;;;17.30;99.90;;;;;;5072044;28;20678;-63
2021/08/05 04:45:15;;;;;;;18.60;16.98;;;17.30;99.90;;;;;;5072426;28;20586;-64
2021/08/05 04:47:54;;;;;;;17.70;16.20;;;17.30;99.90;;;;;;5072164;28;20679;-64
2021/08/05 04:50:23;;;;;;;16.35;14.95;;;17.40;99.90;;;;;;5072499;28;20181;-64
2021/08/05 04:52:51;;;;;;;17.65;16.15;;;17.30;99.90;;;;;;5072460;28;20288;-64
2021/08/05 04:55:19;;;;;;;18.20;16.40;;;17.30;99.90;;;;;;5072177;28;20661;-64
2021/08/05 04:57:49;;;;;;;16.75;15.45;;;17.40;99.90;;;;;;5072130;28;20600;-64
2021/08/05 05:00:23;;;;;;;16.20;14.80;;;17.50;99.90;;;;;;5072448;28;20200;-64
2021/08/05 05:02:51;;;;;;;16.67;15.18;;;17.40;99.90;;;;;;5072310;28;20207;-64
2021/08/05 05:05:19;;;;;;;15.82;14.52;;;17.40;99.90;;;;;;5072360;28;20623;-64
2021/08/05 05:07:47;;;;;;;16.13;14.60;;;17.40;99.90;;;;;;5072320;28;20235;-64
2021/08/05 05:10:17;;;;;;;15.50;14.18;;;17.40;99.90;;;;;;5072120;28;20197;-63
2021/08/05 05:12:45;;;;;;;13.95;12.75;;;17.40;99.90;;;;;;5071672;28;20236;-64
2021/08/05 05:15:14;;;;;;;14.25;12.95;;;17.50;99.90;;;;;;5072384;28;20255;-64
2021/08/05 05:17:44;;;;;;;14.43;13.15;;;17.50;99.90;;;;;;5071944;28;20217;-64
2021/08/05 05:20:13;;;;;;;13.68;12.57;;;17.60;99.90;;;;;;5072123;28;20239;-64
2021/08/05 05:22:41;;;;;;;13.05;12.05;;;17.60;99.90;;;;;;5072136;28;20255;-64
2021/08/05 05:25:12;;;;;;;13.98;12.77;;;17.60;99.90;;;;;;5071990;28;20287;-63
2021/08/05 05:27:40;;;;;;;14.30;13.15;;;17.80;99.90;;;;;;5073276;28;20618;-64
2021/08/05 05:30:11;;;;;;;13.27;12.13;;;17.80;99.90;;;;;;5075828;28;20296;-65
2021/08/05 05:32:39;;;;;;;13.88;12.65;;;17.80;99.90;;;;;;5075729;28;20291;-64
2021/08/05 05:35:09;;;;;;;13.57;12.18;;;17.90;99.90;;;;;;5075412;28;20294;-65
2021/08/05 05:37:37;;;;;;;12.73;11.63;;;18.00;99.90;;;;;;5075472;28;20224;-64
2021/08/05 05:40:06;;;;;;;11.82;10.82;;;18.20;99.90;;;;;;5075193;28;20196;-65
2021/08/05 05:42:34;;;;;;;11.70;10.70;;;18.40;99.90;;;;;;5055678;28;20565;-65
2021/08/05 05:45:04;;;;;;;11.93;10.93;;;18.30;99.90;;;;;;5055175;28;20740;-65
2021/08/05 05:47:31;;;;;;;11.82;10.88;;;18.40;99.90;;;;;;5055484;28;20237;-65
2021/08/05 05:49:59;;;;;;;12.10;11.00;;;18.50;99.90;;;;;;5055332;28;20201;-64
2021/08/05 05:52:29;;;;;;;10.32;9.52;;;18.40;99.90;;;;;;5055106;28;20669;-65
2021/08/05 05:54:57;;;;;;;10.90;10.00;;;18.30;99.90;;;;;;5054970;28;20201;-64
2021/08/05 05:57:24;;;;;;;10.75;9.85;;;18.30;99.90;;;;;;5055075;28;20217;-64
2021/08/05 05:59:52;;;;;;;9.82;9.02;;;18.30;99.90;;;;;;5055286;28;20213;-65
2021/08/05 06:02:20;;;;;;;9.52;8.65;;;18.30;99.90;;;;;;5054924;28;20205;-64
2021/08/05 06:04:48;;;;;;;9.05;8.35;;;18.40;99.90;;;;;;5055069;28;20201;-64
2021/08/05 06:07:16;;;;;;;9.82;8.98;;;18.50;99.90;;;;;;5055166;28;20198;-64
2021/08/05 06:09:45;;;;;;;10.18;8.90;;;18.60;99.90;;;;;;5054687;28;20201;-64
2021/08/05 06:12:14;;;;;;;8.90;8.20;;;18.80;99.90;;;;;;5054230;28;20219;-65
2021/08/05 06:14:42;;;;;;;8.70;8.00;;;18.90;99.90;;;;;;5054949;28;20220;-65
2021/08/05 06:17:11;;;;;;;8.80;8.00;;;18.90;99.90;;;;;;5062761;28;20212;-64
2021/08/05 06:19:38;;;;;;;8.52;7.90;;;19.10;99.90;;;;;;5074372;28;20212;-64
2021/08/05 06:22:08;;;;;;;9.07;8.27;;;19.10;99.90;;;;;;5074394;28;20208;-65
2021/08/05 06:24:36;;;;;;;8.82;8.02;;;19.30;99.90;;;;;;5074259;28;20201;-65
2021/08/05 06:27:05;;;;;;;8.32;7.72;;;19.40;99.90;;;;;;5074096;28;20193;-64
2021/08/05 06:29:33;;;;;;;8.77;8.07;;;19.50;99.90;;;;;;5074128;28;20197;-66
2021/08/05 06:32:01;;;;;;;7.30;6.70;;;19.60;99.90;;;;;;5074007;28;20212;-65
2021/08/05 06:34:29;;;;;;;8.15;7.35;;;19.60;99.90;;;;;;5074224;28;20326;-65
2021/08/05 06:36:56;;;;;;;7.32;6.72;;;19.70;99.90;;;;;;5074352;28;20212;-66
2021/08/05 06:39:24;;;;;;;8.38;6.88;;;19.70;99.90;;;;;;5072811;28;20200;-67
2021/08/05 06:41:52;;;;;;;8.10;7.50;;;19.70;99.90;;;;;;5073709;28;20201;-65
2021/08/05 06:44:21;;;;;;;7.70;7.00;;;19.80;99.90;;;;;;5073470;28;20225;-64
2021/08/05 06:46:49;;;;;;;8.05;7.30;;;19.90;99.90;;;;;;5073635;28;20200;-65
2021/08/05 06:49:17;;;;;;;8.43;7.63;;;20.10;99.90;;;;;;5073582;28;20244;-65
2021/08/05 06:51:44;;;;;;;8.50;7.65;;;20.50;99.90;;;;;;5073797;28;20200;-65
2021/08/05 06:54:12;;;;;;;8.43;7.68;;;20.60;99.90;;;;;;5073171;28;20200;-65
2021/08/05 06:56:41;;;;;;;7.22;6.65;;;20.90;99.90;;;;;;5073389;28;20200;-64
2021/08/05 06:59:10;;;;;;;8.38;7.43;;;20.90;99.90;;;;;;5073199;28;20211;-65
2021/08/05 07:01:39;;;;;;;7.55;6.95;;;21.10;99.90;;;;;;5073714;28;20200;-65
2021/08/05 07:04:09;;;;;;;7.88;7.15;;;21.30;99.90;;;;;;5073838;28;20197;-65
2021/08/05 07:06:37;;;;;;;6.82;6.22;;;21.30;99.90;;;;;;5073418;28;20211;-64
2021/08/05 07:09:04;;;;;;;7.82;7.22;;;21.40;99.90;;;;;;5073178;28;20679;-64
2021/08/05 07:11:32;;;;;;;8.02;7.32;;;21.70;99.90;;;;;;5072939;28;20675;-64
2021/08/05 07:14:00;;;;;;;7.85;7.20;;;21.70;99.90;;;;;;5072848;28;20272;-64
2021/08/05 07:16:28;;;;;;;6.90;6.40;;;21.80;99.90;;;;;;5072545;28;20734;-65
2021/08/05 07:18:57;;;;;;;8.85;8.05;;;22.10;99.90;;;;;;5072236;28;20256;-65
2021/08/05 07:21:25;;;;;;;8.38;7.68;;;22.20;99.90;;;;;;5072933;28;20205;-66
2021/08/05 07:23:53;;;;;;;7.47;6.88;;;22.30;99.90;;;;;;5072794;28;20203;-65
2021/08/05 07:26:21;;;;;;;8.93;8.07;;;22.30;99.90;;;;;;5073004;28;20222;-65
2021/08/05 07:28:49;;;;;;;7.60;7.00;;;22.40;99.90;;;;;;5072932;28;20208;-64
2021/08/05 07:31:16;;;;;;;8.20;7.45;;;22.30;99.90;;;;;;5072986;28;20197;-65
2021/08/05 07:33:47;;;;;;;7.90;7.10;;;22.30;99.90;;;;;;5072729;28;20197;-65
2021/08/05 07:36:17;;;;;;;6.68;6.18;;;22.70;99.90;;;;;;5073240;28;20181;-64
2021/08/05 07:38:45;;;;;;;6.60;5.90;;;22.70;99.90;;;;;;5072695;28;20591;-65
2021/08/05 07:41:13;;;;;;;5.20;4.80;;;22.50;99.90;;;;;;5065121;28;20201;-64
2021/08/05 07:43:41;;;;;;;5.50;5.10;;;22.60;99.90;;;;;;5053509;28;20201;-66
2021/08/05 07:46:08;;;;;;;6.80;6.30;;;22.80;99.90;;;;;;5053056;28;20292;-64
2021/08/05 07:48:36;;;;;;;6.60;6.10;;;22.90;99.90;;;;;;5053577;28;20251;-64
2021/08/05 07:51:05;;;;;;;6.25;5.65;;;22.80;99.90;;;;;;5051769;28;20197;-64
2021/08/05 07:53:34;;;;;;;5.40;5.00;;;22.80;99.90;;;;;;5052102;28;20210;-64
2021/08/05 07:56:02;;;;;;;5.88;5.22;;;22.80;99.90;;;;;;5052575;28;20347;-64
2021/08/05 07:58:30;;;;;;;5.22;4.72;;;23.10;99.90;;;;;;5052237;28;20752;-65
2021/08/05 08:00:58;;;;;;;3.88;3.58;;;23.20;99.90;;;;;;5052726;28;20367;-65
2021/08/05 08:03:26;;;;;;;3.95;3.65;;;23.20;99.90;;;;;;5052730;28;20197;-66
2021/08/05 08:05:54;;;;;;;3.50;3.20;;;23.20;99.90;;;;;;5052760;28;20205;-66
2021/08/05 08:08:21;;;;;;;4.20;3.90;;;22.80;99.90;;;;;;5052346;28;20300;-64
2021/08/05 08:10:51;;;;;;;4.38;3.97;;;22.80;99.90;;;;;;5052302;28;20213;-65
2021/08/05 08:13:29;;;;;;;4.47;4.00;;;22.80;99.90;;;;;;5053029;28;20196;-64
2021/08/05 08:15:57;;;;;;;3.80;3.50;;;22.70;99.90;;;;;;5052884;28;20201;-65
2021/08/05 08:18:26;;;;;;;4.45;3.65;;;22.70;99.90;;;;;;5070822;28;20303;-64
2021/08/05 08:20:55;;;;;;;4.05;3.75;;;22.80;99.90;;;;;;5071598;28;20692;-65
2021/08/05 08:23:23;;;;;;;4.55;4.15;;;23.00;99.90;;;;;;5071720;28;20717;-64
2021/08/05 08:25:52;;;;;;;4.55;4.15;;;23.00;99.90;;;;;;5071959;28;20218;-64
2021/08/05 08:28:20;;;;;;;4.07;3.72;;;22.80;99.90;;;;;;5071874;28;20226;-65
2021/08/05 08:30:48;;;;;;;3.95;3.65;;;22.90;99.90;;;;;;5074309;28;20254;-64
2021/08/05 08:33:16;;;;;;;4.93;3.85;;;23.00;99.90;;;;;;5074685;28;20211;-65
2021/08/05 08:35:43;;;;;;;4.57;4.28;;;23.20;99.90;;;;;;5072936;28;20204;-64
2021/08/05 08:38:11;;;;;;;4.05;3.75;;;23.20;99.90;;;;;;5071812;28;20342;-65
2021/08/05 08:40:39;;;;;;;3.50;3.20;;;23.10;99.90;;;;;;5071536;28;20656;-65
2021/08/05 08:43:08;;;;;;;4.28;3.88;;;23.20;99.90;;;;;;5071695;28;20201;-64
2021/08/05 08:45:37;;;;;;;4.18;3.88;;;23.30;99.90;;;;;;5071374;28;20232;-64
2021/08/05 08:48:06;;;;;;;4.93;4.50;;;23.40;99.90;;;;;;5071870;28;20192;-66
2021/08/05 08:50:35;;;;;;;4.50;4.20;;;23.70;99.90;;;;;;5071634;28;20247;-64
2021/08/05 08:53:05;;;;;;;4.13;3.83;;;23.80;99.90;;;;;;5071707;28;20212;-65
2021/08/05 08:55:33;;;;;;;4.20;3.90;;;23.80;99.90;;;;;;5071069;28;20204;-66
2021/08/05 08:58:03;;;;;;;3.95;3.65;;;23.70;99.90;;;;;;5071181;28;20964;-65
2021/08/05 09:00:33;;;;;;;5.55;5.15;;;23.70;99.90;;;;;;5071635;28;20201;-65
2021/08/05 09:03:01;;;;;;;5.57;5.18;;;23.90;99.90;;;;;;5073628;28;20326;-65
2021/08/05 09:05:30;;;;;;;4.78;4.40;;;23.90;99.90;;;;;;5075472;28;20262;-64
2021/08/05 09:07:58;;;;;;;6.60;6.10;;;23.90;99.90;;;;;;5075338;28;20216;-65
2021/08/05 09:10:27;;;;;;;6.90;6.30;;;23.70;99.90;;;;;;5075169;28;20239;-64
2021/08/05 09:12:55;;;;;;;4.20;3.90;;;23.70;99.90;;;;;;5075286;28;20293;-64
2021/08/05 09:15:38;;;;;;;3.67;3.38;;;23.50;99.90;;;;;;5075290;28;20197;-65
2021/08/05 09:18:24;;;;;;;3.28;3.08;;;23.40;99.90;;;;;;5075421;28;20195;-65
2021/08/05 09:21:14;;;;;;;3.80;3.50;;;23.60;99.90;;;;;;5075179;28;20204;-64
2021/08/05 09:23:54;;;;;;;3.78;3.33;;;23.70;99.90;;;;;;5071043;28;20669;-64
2021/08/05 09:26:27;;;;;;;5.05;3.70;;;23.80;99.90;;;;;;5075397;28;20181;-65
2021/08/05 09:29:06;;;;;;;3.80;3.50;;;23.90;99.90;;;;;;5074829;28;20187;-65
2021/08/05 09:31:37;;;;;;;3.25;2.97;;;24.00;99.90;;;;;;5074744;28;20609;-63
2021/08/05 09:34:08;;;;;;;3.38;3.08;;;24.00;99.90;;;;;;5074891;28;20200;-65
2021/08/05 09:36:37;;;;;;;4.82;3.90;;;24.00;99.90;;;;;;5074678;28;20649;-65
2021/08/05 09:39:21;;;;;;;5.22;4.82;;;24.10;99.90;;;;;;5074829;28;20223;-65
2021/08/05 09:42:00;;;;;;;4.07;3.75;;;24.00;99.90;;;;;;5060435;28;20209;-64
2021/08/05 09:44:29;;;;;;;4.15;3.83;;;24.00;99.90;;;;;;5054436;28;20236;-64
2021/08/05 09:47:06;;;;;;;4.50;3.70;;;24.00;99.90;;;;;;5054687;28;20201;-65
2021/08/05 09:49:35;;;;;;;4.20;3.80;;;23.70;99.90;;;;;;5054687;28;20197;-64
2021/08/05 09:52:05;;;;;;;4.78;4.30;;;23.50;99.90;;;;;;5054761;28;20254;-65
2021/08/05 09:54:38;;;;;;;5.90;5.47;;;23.70;99.90;;;;;;5054539;28;20208;-65
2021/08/05 09:57:07;;;;;;;8.90;5.45;;;23.60;99.90;;;;;;5054701;28;20192;-64
2021/08/05 09:59:52;;;;;;;5.63;5.00;;;23.20;99.90;;;;;;5054073;28;20221;-63
2021/08/05 10:02:22;;;;;;;5.90;5.38;;;23.10;99.90;;;;;;5054213;28;20182;-65
2021/08/05 10:04:50;;;;;;;5.43;4.97;;;23.10;99.90;;;;;;5054876;28;20183;-64
2021/08/05 10:07:18;;;;;;;6.03;5.10;;;23.00;99.90;;;;;;5054872;28;20219;-65
2021/08/05 10:09:55;;;;;;;6.32;5.72;;;23.00;99.90;;;;;;5054341;28;20275;-64
2021/08/05 10:12:30;;;;;;;5.53;5.00;;;22.90;99.90;;;;;;5054200;28;20205;-65
2021/08/05 10:15:08;;;;;;;5.55;5.15;;;22.90;99.90;;;;;;5053169;28;20185;-64
2021/08/05 10:17:38;;;;;;;5.13;4.63;;;23.00;99.90;;;;;;5066297;28;20276;-64
2021/08/05 10:20:12;;;;;;;5.28;4.85;;;23.00;99.90;;;;;;5074378;28;20308;-65
2021/08/05 10:22:40;;;;;;;6.22;5.10;;;23.00;99.90;;;;;;5074193;28;20203;-64
2021/08/05 10:25:10;;;;;;;6.72;6.13;;;22.90;99.90;;;;;;5073877;28;20200;-65
2021/08/05 10:27:38;;;;;;;7.60;7.00;;;23.00;99.90;;;;;;5073939;28;20211;-65
2021/08/05 10:30:09;;;;;;;6.97;6.38;;;23.00;99.90;;;;;;5073739;28;20771;-66
2021/08/05 10:32:39;;;;;;;7.55;6.97;;;23.10;99.90;;;;;;5073519;28;20643;-65
2021/08/05 10:35:08;;;;;;;7.60;7.03;;;23.10;99.90;;;;;;5074028;28;20201;-65
2021/08/05 10:37:36;;;;;;;8.65;7.93;;;23.10;99.90;;;;;;5073979;28;20200;-66
2021/08/05 10:40:06;;;;;;;8.70;8.00;;;23.10;99.90;;;;;;5073473;28;20282;-65
2021/08/05 10:42:36;;;;;;;7.78;7.07;;;23.10;99.90;;;;;;5073255;28;20295;-64
2021/08/05 10:45:04;;;;;;;7.95;7.35;;;23.20;99.90;;;;;;5073252;28;20232;-65
2021/08/05 10:47:33;;;;;;;7.78;7.18;;;23.20;99.90;;;;;;5073660;28;20207;-66
2021/08/05 10:50:08;;;;;;;8.25;7.45;;;23.10;99.90;;;;;;5073898;28;20193;-65
2021/08/05 10:52:40;;;;;;;7.28;6.68;;;23.00;99.90;;;;;;5073631;28;20204;-65
2021/08/05 10:55:24;;;;;;;7.93;7.22;;;23.20;99.90;;;;;;5073376;28;20185;-65
2021/08/05 10:58:12;;;;;;;6.90;6.30;;;23.30;99.90;;;;;;5073107;28;20199;-65
2021/08/05 11:01:04;;;;;;;7.28;6.68;;;23.40;99.90;;;;;;5073336;28;20303;-65
2021/08/05 11:03:48;;;;;;;8.98;7.22;;;23.30;99.90;;;;;;5073508;28;20193;-65
2021/08/05 11:06:32;;;;;;;7.15;6.53;;;23.40;99.90;;;;;;5073471;28;20181;-65
2021/08/05 11:09:31;;;;;;;8.95;8.15;;;23.40;99.90;;;;;;5073310;28;20284;-65
2021/08/05 11:12:40;;;;;;;7.38;6.72;;;23.40;99.90;;;;;;5010740;28;20311;-65
2021/08/05 11:15:46;;;;;;;7.85;7.25;;;23.40;99.90;;;;;;5073104;28;20181;-65
2021/08/05 11:18:23;;;;;;;7.80;7.10;;;23.50;99.90;;;;;;5073024;28;20200;-66
2021/08/05 11:21:36;;;;;;;8.48;7.68;;;23.50;99.90;;;;;;5073203;28;20206;-65
2021/08/05 11:24:05;;;;;;;8.45;7.72;;;23.80;99.90;;;;;;5072610;28;20211;-66
2021/08/05 11:26:32;;;;;;;8.70;7.95;;;23.50;99.90;;;;;;5072436;28;20452;-64
2021/08/05 11:29:02;;;;;;;8.77;7.88;;;23.40;99.90;;;;;;5072561;28;20575;-64
2021/08/05 11:31:39;;;;;;;8.93;8.23;;;23.30;99.90;;;;;;5072865;28;20203;-63
2021/08/05 11:34:12;;;;;;;9.55;8.70;;;23.00;99.90;;;;;;5072927;28;20184;-64
2021/08/05 11:36:46;;;;;;;8.07;7.28;;;22.70;99.90;;;;;;5072869;28;20287;-65
2021/08/05 11:39:19;;;;;;;7.10;6.50;;;22.50;99.90;;;;;;5072699;28;20195;-65
2021/08/05 11:41:53;;;;;;;8.77;7.97;;;22.30;99.90;;;;;;5059678;28;20197;-65
2021/08/05 11:44:28;;;;;;;10.15;9.32;;;22.30;99.90;;;;;;5052418;28;20264;-64
2021/08/05 11:47:11;;;;;;;9.95;9.15;;;22.20;99.90;;;;;;5052426;28;20283;-65
2021/08/05 11:49:41;;;;;;;8.85;8.13;;;22.00;99.90;;;;;;5052582;28;20207;-64
2021/08/05 11:52:10;;;;;;;8.88;8.07;;;22.20;99.90;;;;;;5052615;28;20198;-64
2021/08/05 11:54:40;;;;;;;8.18;7.50;;;21.80;99.90;;;;;;5052134;28;20653;-65
2021/08/05 11:57:09;;;;;;;6.85;6.25;;;21.60;99.90;;;;;;5052495;28;20292;-64
2021/08/05 11:59:40;;;;;;;8.00;7.40;;;21.60;99.90;;;;;;5052279;28;20197;-64
2021/08/05 12:02:10;;;;;;;8.07;7.38;;;21.60;99.90;;;;;;5052278;28;20185;-65
2021/08/05 12:04:39;;;;;;;6.55;5.95;;;21.40;99.90;;;;;;5052477;28;20236;-65
2021/08/05 12:07:17;;;;;;;6.75;6.25;;;21.30;99.90;;;;;;5052283;28;20227;-64
2021/08/05 12:09:50;;;;;;;6.88;6.38;;;21.30;99.90;;;;;;5051890;28;20286;-65
2021/08/05 12:12:18;;;;;;;9.10;8.30;;;21.20;99.90;;;;;;5052179;28;20202;-64
2021/08/05 12:14:52;;;;;;;8.27;7.57;;;21.10;99.90;;;;;;5052068;28;20208;-64
2021/08/05 12:17:39;;;;;;;9.73;8.82;;;20.90;99.90;;;;;;5063570;28;20234;-64
2021/08/05 12:20:11;;;;;;;8.65;8.05;;;20.70;99.90;;;;;;5072233;28;20247;-65
2021/08/05 12:22:41;;;;;;;8.77;7.97;;;20.60;99.90;;;;;;5072057;28;20302;-64
2021/08/05 12:25:25;;;;;;;8.85;8.15;;;20.40;99.90;;;;;;5072067;28;20212;-64
2021/08/05 12:27:55;;;;;;;9.48;8.68;;;20.40;99.90;;;;;;5072087;28;20181;-64
2021/08/05 12:30:33;;;;;;;9.32;8.52;;;20.40;99.90;;;;;;5071836;28;20545;-65
2021/08/05 12:33:03;;;;;;;10.18;9.27;;;20.40;99.90;;;;;;5071864;28;20193;-65
2021/08/05 12:35:31;;;;;;;9.25;8.45;;;20.60;99.90;;;;;;5072114;28;20185;-66
2021/08/05 12:38:07;;;;;;;9.77;8.88;;;20.80;99.90;;;;;;5074164;28;20292;-64
2021/08/05 12:40:40;;;;;;;9.55;8.75;;;21.10;99.90;;;;;;5076051;28;20210;-65
2021/08/05 12:43:10;;;;;;;9.40;8.70;;;21.30;99.90;;;;;;5075777;28;20185;-64
2021/08/05 12:45:41;;;;;;;9.27;8.18;;;21.60;99.90;;;;;;5075564;28;20311;-64
2021/08/05 12:48:10;;;;;;;10.38;9.48;;;21.80;99.90;;;;;;5075928;28;20187;-64
2021/08/05 12:50:42;;;;;;;9.63;8.82;;;22.10;99.90;;;;;;5075736;28;20284;-65
2021/08/05 12:53:28;;;;;;;9.20;8.40;;;22.30;99.90;;;;;;5075916;28;20280;-64
2021/08/05 12:55:58;;;;;;;8.77;8.13;;;22.50;99.90;;;;;;5075768;28;20181;-66